createdAt,value
2022-12-27T00:00:44.933Z,6.97
2022-12-27T00:03:08.661Z,7.78
2022-12-27T00:04:18.610Z,7.97
2022-12-27T00:05:27.160Z,6.28
2022-12-27T00:06:36.946Z,6.43
2022-12-27T00:07:46.490Z,6.62
2022-12-27T00:08:57.283Z,7.30
2022-12-27T00:11:26.202Z,6.02
2022-12-27T00:12:36.214Z,7.13
2022-12-27T00:15:02.100Z,6.10
2022-12-27T00:17:22.249Z,6.02
2022-12-27T00:18:30.892Z,5.40
2022-12-27T00:19:40.535Z,6.57
2022-12-27T00:22:08.857Z,7.23
2022-12-27T00:23:17.386Z,7.45
2022-12-27T00:24:26.541Z,7.13
2022-12-27T00:25:36.037Z,8.18
2022-12-27T00:26:52.045Z,7.68
2022-12-27T00:28:01.142Z,9.30
2022-12-27T00:29:10.796Z,6.92
2022-12-27T00:30:22.228Z,7.70
2022-12-27T00:31:32.399Z,7.07
2022-12-27T00:32:41.635Z,5.50
2022-12-27T00:33:54.544Z,5.65
2022-12-27T00:35:04.949Z,6.02
2022-12-27T00:36:18.450Z,5.92
2022-12-27T00:37:28.465Z,5.97
2022-12-27T00:40:13.580Z,5.70
2022-12-27T00:41:23.534Z,5.35
2022-12-27T00:42:32.475Z,5.40
2022-12-27T00:43:42.285Z,5.80
2022-12-27T00:44:51.746Z,4.82
2022-12-27T00:46:01.974Z,5.05
2022-12-27T00:47:11.064Z,5.50
2022-12-27T00:48:20.848Z,5.72
2022-12-27T00:49:30.460Z,6.05
2022-12-27T00:50:40.576Z,6.02
2022-12-27T00:51:50.434Z,5.10
2022-12-27T00:53:00.288Z,5.75
2022-12-27T00:54:09.291Z,5.65
2022-12-27T00:55:18.209Z,5.37
2022-12-27T00:56:29.941Z,5.87
2022-12-27T00:57:39.028Z,6.02
2022-12-27T00:58:49.749Z,5.83
2022-12-27T00:59:58.511Z,7.35
2022-12-27T01:02:49.174Z,7.50
2022-12-27T01:03:59.826Z,7.22
2022-12-27T01:05:10.761Z,7.13
2022-12-27T01:07:38.220Z,6.43
2022-12-27T01:08:48.381Z,6.20
2022-12-27T01:09:57.297Z,5.57
2022-12-27T01:12:21.819Z,5.55
2022-12-27T01:13:31.540Z,6.45
2022-12-27T01:15:57.389Z,5.72
2022-12-27T01:17:07.595Z,5.13
2022-12-27T01:18:16.405Z,5.50
2022-12-27T01:19:25.334Z,5.83
2022-12-27T01:20:35.277Z,5.65
2022-12-27T01:21:46.416Z,5.17
2022-12-27T01:22:55.032Z,5.62
2022-12-27T01:25:22.595Z,5.32
2022-12-27T01:26:31.682Z,5.83
2022-12-27T01:27:41.370Z,5.52
2022-12-27T01:28:52.171Z,5.45
2022-12-27T01:31:17.867Z,5.47
2022-12-27T01:34:03.795Z,7.15
2022-12-27T01:35:12.898Z,5.87
2022-12-27T01:36:23.744Z,5.62
2022-12-27T01:37:33.320Z,5.43
2022-12-27T01:38:46.723Z,6.08
2022-12-27T01:39:56.051Z,5.37
2022-12-27T01:42:41.234Z,4.90
2022-12-27T01:43:50.262Z,4.37
2022-12-27T01:45:00.931Z,4.62
2022-12-27T01:46:09.876Z,5.74
2022-12-27T01:48:39.209Z,4.42
2022-12-27T01:51:24.301Z,4.05
2022-12-27T01:54:13.558Z,4.05
2022-12-27T01:55:32.602Z,3.78
2022-12-27T01:56:43.045Z,4.45
2022-12-27T01:57:55.855Z,4.45
2022-12-27T01:59:08.329Z,3.55
2022-12-27T02:00:18.672Z,4.00
2022-12-27T02:02:47.178Z,6.08
2022-12-27T02:04:05.408Z,5.48
2022-12-27T02:05:16.742Z,5.35
2022-12-27T02:06:28.491Z,5.50
2022-12-27T02:09:28.503Z,4.70
2022-12-27T02:10:38.841Z,5.70
2022-12-27T02:11:51.602Z,4.47
2022-12-27T02:13:04.426Z,4.77
2022-12-27T02:14:15.624Z,4.25
2022-12-27T02:16:39.280Z,5.15
2022-12-27T02:17:48.593Z,5.57
2022-12-27T02:18:57.237Z,5.22
2022-12-27T02:20:23.258Z,4.82
2022-12-27T02:24:55.902Z,4.07
2022-12-27T02:26:33.291Z,4.47
2022-12-27T02:28:17.792Z,4.50
2022-12-27T02:32:38.983Z,5.95
2022-12-27T02:33:53.003Z,5.10
2022-12-27T02:35:20.446Z,4.93
2022-12-27T02:36:32.903Z,5.65
2022-12-27T02:38:01.912Z,5.30
2022-12-27T02:39:14.733Z,5.35
2022-12-27T02:40:45.360Z,4.55
2022-12-27T02:42:15.405Z,4.40
2022-12-27T02:44:58.761Z,4.88
2022-12-27T02:46:44.132Z,4.72
2022-12-27T02:49:54.069Z,4.78
2022-12-27T02:53:10.647Z,5.13
2022-12-27T02:54:44.480Z,4.22
2022-12-27T02:56:39.259Z,4.67
2022-12-27T02:57:57.773Z,5.25
2022-12-27T03:01:16.979Z,5.52
2022-12-27T03:04:12.216Z,5.35
2022-12-27T03:05:46.595Z,5.85
2022-12-27T03:08:19.415Z,6.30
2022-12-27T03:11:26.629Z,6.05
2022-12-27T03:13:18.294Z,5.40
2022-12-27T03:14:49.378Z,5.13
2022-12-27T03:19:04.979Z,5.13
2022-12-27T03:20:37.974Z,5.22
2022-12-27T03:22:08.006Z,6.63
2022-12-27T03:23:36.849Z,4.92
2022-12-27T03:25:06.471Z,5.07
2022-12-27T03:26:19.271Z,5.33
2022-12-27T03:29:08.222Z,5.22
2022-12-27T03:30:37.542Z,5.97
2022-12-27T03:32:09.166Z,5.12
2022-12-27T03:33:18.839Z,6.45
2022-12-27T03:34:32.194Z,6.48
2022-12-27T03:36:19.728Z,8.45
2022-12-27T03:37:57.664Z,6.77
2022-12-27T03:39:16.236Z,6.28
2022-12-27T03:41:17.605Z,6.50
2022-12-27T03:42:49.356Z,7.00
2022-12-27T03:43:59.327Z,5.52
2022-12-27T03:45:10.157Z,6.05
2022-12-27T03:46:37.290Z,5.38
2022-12-27T03:50:51.045Z,6.90
2022-12-27T03:52:10.269Z,5.10
2022-12-27T03:53:23.498Z,7.10
2022-12-27T03:54:35.792Z,5.43
2022-12-27T03:55:45.875Z,5.70
2022-12-27T03:57:00.566Z,6.75
2022-12-27T03:58:10.455Z,6.08
2022-12-27T03:59:19.664Z,5.92
2022-12-27T04:00:29.498Z,5.54
2022-12-27T04:03:14.473Z,6.68
2022-12-27T04:04:24.516Z,6.52
2022-12-27T04:05:34.166Z,5.63
2022-12-27T04:06:43.256Z,5.60
2022-12-27T04:10:06.059Z,5.50
2022-12-27T04:11:33.742Z,4.97
2022-12-27T04:13:01.614Z,5.32
2022-12-27T04:14:28.877Z,5.37
2022-12-27T04:17:29.280Z,6.50
2022-12-27T04:18:57.201Z,7.08
2022-12-27T04:20:25.919Z,6.37
2022-12-27T04:21:53.973Z,5.85
2022-12-27T04:23:22.088Z,6.20
2022-12-27T04:24:49.009Z,5.33
2022-12-27T04:26:16.764Z,8.18
2022-12-27T04:27:44.927Z,8.25
2022-12-27T04:29:13.605Z,8.23
2022-12-27T04:30:41.775Z,8.05
2022-12-27T04:34:02.073Z,8.25
2022-12-27T04:35:10.713Z,6.35
2022-12-27T04:36:20.283Z,7.58
2022-12-27T04:37:31.034Z,8.08
2022-12-27T04:38:40.680Z,8.25
2022-12-27T04:41:25.830Z,10.97
2022-12-27T04:42:53.929Z,7.45
2022-12-27T04:44:20.891Z,6.32
2022-12-27T04:45:48.797Z,6.08
2022-12-27T04:47:18.037Z,6.65
2022-12-27T04:48:44.597Z,6.05
2022-12-27T04:50:13.276Z,6.97
2022-12-27T04:53:14.403Z,6.97
2022-12-27T04:54:42.819Z,5.95
2022-12-27T04:55:56.246Z,5.13
2022-12-27T04:58:20.800Z,5.85
2022-12-27T05:01:23.930Z,5.83
2022-12-27T05:02:33.821Z,5.83
2022-12-27T05:03:44.318Z,6.17
2022-12-27T05:04:53.452Z,6.50
2022-12-27T05:06:02.683Z,7.35
2022-12-27T05:09:06.924Z,6.00
2022-12-27T05:10:35.326Z,6.50
2022-12-27T05:12:04.586Z,6.50
2022-12-27T05:13:32.963Z,7.35
2022-12-27T05:14:42.683Z,6.25
2022-12-27T05:15:51.612Z,11.87
2022-12-27T05:17:00.592Z,6.28
2022-12-27T05:18:09.596Z,6.17
2022-12-27T05:19:19.247Z,5.37
2022-12-27T05:20:28.184Z,5.45
2022-12-27T05:21:40.335Z,6.28
2022-12-27T05:24:40.988Z,5.85
2022-12-27T05:25:50.024Z,5.55
2022-12-27T05:26:59.601Z,7.28
2022-12-27T05:28:11.078Z,5.55
2022-12-27T05:29:20.111Z,4.60
2022-12-27T05:30:29.224Z,5.63
2022-12-27T05:31:38.657Z,5.77
2022-12-27T05:32:47.762Z,5.32
2022-12-27T05:33:57.716Z,5.90
2022-12-27T05:35:07.498Z,5.23
2022-12-27T05:36:17.639Z,6.10
2022-12-27T05:37:27.628Z,7.17
2022-12-27T05:38:37.900Z,8.10
2022-12-27T05:39:48.142Z,94.55
2022-12-27T05:40:59.722Z,35.10
2022-12-27T05:42:09.459Z,15.88
2022-12-27T05:44:53.503Z,9.07
2022-12-27T05:47:25.073Z,7.35
2022-12-27T05:48:35.664Z,7.40
2022-12-27T05:49:44.200Z,7.57
2022-12-27T05:50:53.532Z,6.95
2022-12-27T05:52:05.749Z,7.70
2022-12-27T05:53:15.438Z,7.55
2022-12-27T05:54:24.548Z,7.58
2022-12-27T05:57:09.550Z,7.93
2022-12-27T05:58:18.533Z,8.18
2022-12-27T05:59:27.669Z,8.33
2022-12-27T06:00:37.417Z,9.00
2022-12-27T06:01:46.750Z,9.12
2022-12-27T06:02:56.266Z,9.82
2022-12-27T06:04:05.255Z,10.42
2022-12-27T06:05:14.189Z,9.95
2022-12-27T06:06:23.920Z,9.38
2022-12-27T06:07:35.215Z,9.18
2022-12-27T06:08:44.227Z,8.77
2022-12-27T06:09:54.376Z,9.65
2022-12-27T06:12:26.639Z,8.38
2022-12-27T06:13:38.327Z,9.90
2022-12-27T06:14:46.907Z,8.73
2022-12-27T06:16:00.154Z,8.82
2022-12-27T06:17:09.286Z,10.03
2022-12-27T06:18:17.792Z,10.18
2022-12-27T06:19:28.325Z,11.35
2022-12-27T06:20:37.379Z,12.22
2022-12-27T06:21:46.877Z,12.17
2022-12-27T06:22:57.291Z,11.17
2022-12-27T06:24:07.456Z,12.35
2022-12-27T06:25:16.665Z,10.25
2022-12-27T06:26:29.176Z,11.00
2022-12-27T06:27:38.171Z,9.42
2022-12-27T06:28:49.114Z,9.32
2022-12-27T06:29:57.637Z,12.05
2022-12-27T06:31:07.515Z,12.42
2022-12-27T06:32:17.231Z,12.08
2022-12-27T06:33:28.734Z,11.62
2022-12-27T06:34:37.600Z,10.50
2022-12-27T06:35:47.136Z,12.95
2022-12-27T06:36:56.023Z,11.80
2022-12-27T06:38:05.687Z,11.50
2022-12-27T06:39:15.886Z,11.75
2022-12-27T06:40:24.517Z,12.45
2022-12-27T06:41:33.430Z,12.00
2022-12-27T06:42:43.453Z,12.75
2022-12-27T06:43:57.195Z,11.45
2022-12-27T06:45:09.101Z,11.80
2022-12-27T06:46:19.621Z,12.90
2022-12-27T06:47:30.321Z,12.24
2022-12-27T06:48:40.081Z,13.53
2022-12-27T06:49:48.517Z,11.12
2022-12-27T06:50:58.324Z,12.85
2022-12-27T06:52:07.005Z,12.37
2022-12-27T06:53:16.733Z,11.45
2022-12-27T06:54:26.608Z,13.00
2022-12-27T06:55:35.703Z,14.43
2022-12-27T06:56:44.807Z,13.58
2022-12-27T06:57:56.130Z,12.22
2022-12-27T06:59:05.625Z,13.15
2022-12-27T07:00:15.834Z,12.30
2022-12-27T07:01:26.582Z,12.77
2022-12-27T07:03:55.334Z,15.57
2022-12-27T07:06:21.848Z,15.35
2022-12-27T07:08:39.952Z,14.73
2022-12-27T07:09:48.646Z,15.77
2022-12-27T07:11:06.756Z,15.20
2022-12-27T07:12:15.381Z,18.12
2022-12-27T07:13:23.925Z,13.75
2022-12-27T07:15:48.422Z,13.53
2022-12-27T07:16:57.098Z,16.88
2022-12-27T07:18:05.715Z,16.88
2022-12-27T07:19:14.862Z,16.70
2022-12-27T07:20:24.283Z,16.14
2022-12-27T07:21:34.017Z,14.95
2022-12-27T07:22:44.593Z,16.45
2022-12-27T07:23:53.732Z,14.60
2022-12-27T07:25:02.814Z,13.77
2022-12-27T07:26:14.524Z,14.48
2022-12-27T07:27:23.601Z,15.00
2022-12-27T07:28:32.784Z,16.53
2022-12-27T07:29:45.439Z,16.23
2022-12-27T07:30:54.063Z,15.98
2022-12-27T07:32:02.791Z,16.80
2022-12-27T07:34:27.083Z,16.18
2022-12-27T07:36:52.671Z,18.40
2022-12-27T07:38:01.472Z,16.00
2022-12-27T07:39:11.723Z,17.17
2022-12-27T07:40:20.317Z,18.65
2022-12-27T07:41:30.214Z,18.83
2022-12-27T07:42:42.168Z,18.10
2022-12-27T07:43:52.199Z,15.24
2022-12-27T07:45:01.183Z,18.73
2022-12-27T07:46:19.904Z,18.27
2022-12-27T07:47:28.571Z,17.05
2022-12-27T07:48:39.446Z,16.70
2022-12-27T07:49:48.085Z,21.15
2022-12-27T07:50:57.022Z,16.97
2022-12-27T07:52:07.611Z,16.58
2022-12-27T07:53:16.129Z,18.13
2022-12-27T07:54:25.850Z,17.87
2022-12-27T07:55:34.570Z,17.87
2022-12-27T07:56:44.190Z,19.50
2022-12-27T07:57:53.310Z,16.85
2022-12-27T07:59:02.515Z,17.12
2022-12-27T08:00:13.296Z,19.07
2022-12-27T08:01:23.782Z,20.92
2022-12-27T08:02:32.524Z,18.58
2022-12-27T08:03:42.257Z,17.78
2022-12-27T08:04:50.717Z,16.45
2022-12-27T08:05:59.890Z,17.82
2022-12-27T08:07:17.637Z,19.98
2022-12-27T08:10:06.201Z,22.77
2022-12-27T08:11:14.975Z,18.80
2022-12-27T08:12:23.609Z,17.52
2022-12-27T08:13:33.725Z,21.35
2022-12-27T08:14:42.665Z,19.55
2022-12-27T08:15:53.377Z,19.85
2022-12-27T08:17:05.918Z,21.62
2022-12-27T08:18:15.561Z,20.70
2022-12-27T08:19:24.566Z,19.30
2022-12-27T08:20:34.262Z,21.50
2022-12-27T08:21:43.594Z,19.05
2022-12-27T08:22:52.604Z,20.40
2022-12-27T08:25:17.225Z,21.02
2022-12-27T08:26:25.920Z,20.72
2022-12-27T08:27:35.373Z,20.40
2022-12-27T08:28:45.149Z,19.05
2022-12-27T08:29:54.207Z,21.32
2022-12-27T08:31:07.504Z,24.43
2022-12-27T08:32:17.792Z,20.40
2022-12-27T08:33:27.875Z,22.30
2022-12-27T08:34:36.774Z,23.22
2022-12-27T08:35:54.787Z,19.02
2022-12-27T08:36:58.447Z,21.22
2022-12-27T08:38:08.059Z,20.63
2022-12-27T08:39:18.388Z,21.13
2022-12-27T08:40:28.808Z,23.10
2022-12-27T08:42:52.682Z,24.02
2022-12-27T08:44:02.203Z,21.82
2022-12-27T08:45:11.375Z,23.42
2022-12-27T08:46:23.704Z,24.22
2022-12-27T08:47:32.754Z,23.38
2022-12-27T08:48:41.710Z,21.72
2022-12-27T08:49:50.903Z,21.95
2022-12-27T08:51:13.762Z,23.38
2022-12-27T08:53:35.888Z,22.88
2022-12-27T08:54:46.773Z,25.58
2022-12-27T08:55:56.828Z,25.07
2022-12-27T08:57:06.043Z,22.70
2022-12-27T08:58:16.598Z,23.63
2022-12-27T08:59:25.516Z,23.95
2022-12-27T09:00:35.200Z,24.18
2022-12-27T09:01:43.924Z,23.55
2022-12-27T09:02:55.205Z,25.68
2022-12-27T09:04:04.039Z,23.70
2022-12-27T09:05:13.110Z,23.10
2022-12-27T09:06:23.985Z,26.45
2022-12-27T09:07:34.800Z,24.82
2022-12-27T09:08:46.487Z,28.00
2022-12-27T09:09:55.404Z,28.55
2022-12-27T09:11:17.226Z,28.00
2022-12-27T09:13:41.995Z,26.18
2022-12-27T09:14:50.811Z,25.38
2022-12-27T09:16:00.412Z,25.65
2022-12-27T09:17:09.078Z,27.55
2022-12-27T09:18:17.627Z,24.58
2022-12-27T09:19:26.232Z,26.90
2022-12-27T09:20:36.214Z,24.12
2022-12-27T09:21:44.948Z,28.00
2022-12-27T09:22:53.746Z,26.80
2022-12-27T09:24:02.689Z,24.90
2022-12-27T09:25:11.726Z,28.25
2022-12-27T09:26:26.561Z,29.50
2022-12-27T09:27:36.793Z,31.05
2022-12-27T09:28:46.756Z,24.15
2022-12-27T09:29:55.518Z,28.52
2022-12-27T09:31:05.211Z,24.32
2022-12-27T09:32:14.282Z,28.92
2022-12-27T09:33:23.204Z,28.42
2022-12-27T09:34:32.924Z,26.58
2022-12-27T09:35:41.481Z,25.60
2022-12-27T09:36:50.592Z,26.32
2022-12-27T09:38:03.323Z,27.50
2022-12-27T09:39:13.573Z,27.00
2022-12-27T09:40:24.266Z,26.65
2022-12-27T09:43:21.017Z,27.97
2022-12-27T09:44:50.321Z,29.88
2022-12-27T09:46:02.392Z,25.63
2022-12-27T14:10:39.112Z,70.90
2022-12-27T14:13:13.130Z,43.48
2022-12-27T14:14:25.222Z,39.23
2022-12-27T14:15:54.332Z,38.25
2022-12-27T14:17:40.612Z,36.62
2022-12-27T14:22:07.217Z,35.73
2022-12-27T14:23:32.811Z,35.02
2022-12-27T14:25:06.391Z,33.17
2022-12-27T14:26:38.646Z,31.70
2022-12-27T14:28:13.782Z,35.15
2022-12-27T14:29:27.329Z,38.90
2022-12-27T14:30:46.415Z,43.76
2022-12-27T14:32:19.904Z,31.43
2022-12-27T14:33:49.213Z,31.60
2022-12-27T14:35:35.785Z,27.55
2022-12-27T14:37:11.712Z,28.17
2022-12-27T14:40:29.898Z,26.80
2022-12-27T14:42:12.029Z,25.22
2022-12-27T14:43:42.263Z,88.47
2022-12-27T14:45:19.731Z,30.42
2022-12-27T14:46:49.454Z,25.45
2022-12-27T14:48:16.774Z,22.95
2022-12-27T14:49:54.024Z,25.07
2022-12-27T14:52:48.540Z,24.60
2022-12-27T14:54:10.334Z,26.28
2022-12-27T14:55:59.461Z,23.85
2022-12-27T14:57:33.512Z,21.73
2022-12-27T14:59:00.788Z,23.53
2022-12-27T15:00:19.469Z,24.35
2022-12-27T15:03:34.752Z,20.78
2022-12-27T15:05:00.082Z,20.43
2022-12-27T15:09:08.941Z,66.70
2022-12-27T15:10:28.544Z,23.12
2022-12-27T15:13:01.365Z,15.63
2022-12-27T15:14:26.546Z,12.90
2022-12-27T15:15:57.918Z,11.52
2022-12-27T15:17:27.208Z,9.88
2022-12-27T15:18:52.721Z,12.35
2022-12-27T15:20:07.780Z,11.37
2022-12-27T15:21:41.305Z,9.85
2022-12-27T15:24:26.286Z,11.15
2022-12-27T15:25:57.223Z,9.80
2022-12-27T15:27:41.945Z,8.60
2022-12-27T15:28:59.093Z,8.15
2022-12-27T15:30:20.915Z,8.12
2022-12-27T15:31:45.831Z,7.28
2022-12-27T15:33:10.118Z,7.95
2022-12-27T15:34:31.384Z,9.90
2022-12-27T15:37:04.948Z,6.82
2022-12-27T15:38:16.889Z,7.00
2022-12-27T15:39:39.241Z,6.92
2022-12-27T15:40:57.455Z,6.62
2022-12-27T15:42:17.651Z,8.58
2022-12-27T15:43:52.937Z,7.25
2022-12-27T15:45:22.248Z,8.40
2022-12-27T15:48:50.005Z,7.83
2022-12-27T15:51:47.879Z,5.63
2022-12-27T15:53:19.336Z,7.15
2022-12-27T15:54:53.659Z,5.00
2022-12-27T15:58:09.975Z,4.83
2022-12-27T16:02:51.342Z,6.55
2022-12-27T16:04:03.843Z,3.30
2022-12-27T16:05:19.118Z,3.23
2022-12-27T16:06:39.009Z,3.77
2022-12-27T16:08:00.716Z,3.62
2022-12-27T16:09:28.448Z,3.18
2022-12-27T16:10:45.554Z,3.40
2022-12-27T16:13:43.255Z,2.48
2022-12-27T16:17:36.350Z,2.70
2022-12-27T16:20:20.741Z,2.40
2022-12-27T16:22:59.314Z,2.67
2022-12-27T16:24:15.105Z,1.78
2022-12-27T16:25:33.090Z,1.52
2022-12-27T16:27:00.561Z,1.77
2022-12-27T16:28:19.695Z,1.80
2022-12-27T16:29:33.623Z,2.55
2022-12-27T16:30:52.033Z,1.87
2022-12-27T16:33:38.653Z,1.40
2022-12-27T16:34:52.256Z,1.65
2022-12-27T16:36:08.155Z,1.00
2022-12-27T16:39:04.962Z,0.75
2022-12-27T16:40:41.981Z,0.87
2022-12-27T16:42:03.541Z,0.95
2022-12-27T16:43:21.863Z,0.83
2022-12-27T16:44:53.179Z,0.87
2022-12-27T16:48:01.523Z,1.02
2022-12-27T16:49:21.632Z,1.07
2022-12-27T16:50:49.242Z,1.72
2022-12-27T16:52:02.005Z,1.60
2022-12-27T16:53:20.303Z,1.32
2022-12-27T16:55:03.926Z,1.40
2022-12-27T16:56:23.642Z,1.00
2022-12-27T16:58:52.315Z,1.42
2022-12-27T17:01:46.281Z,1.05
2022-12-27T17:02:59.429Z,1.38
2022-12-27T17:05:32.011Z,1.17
2022-12-27T17:06:44.964Z,1.17
2022-12-27T17:07:58.318Z,1.75
2022-12-27T17:09:13.363Z,1.87
2022-12-27T17:10:33.355Z,2.35
2022-12-27T17:11:51.909Z,1.47
2022-12-27T17:14:43.627Z,1.82
2022-12-27T17:17:23.906Z,1.72
2022-12-27T17:18:45.461Z,1.33
2022-12-27T17:20:01.142Z,1.02
2022-12-27T17:22:40.800Z,1.07
2022-12-27T17:23:50.924Z,1.03
2022-12-27T17:25:01.900Z,1.10
2022-12-27T17:26:17.071Z,1.20
2022-12-27T17:27:47.184Z,1.53
2022-12-27T17:30:23.665Z,1.32
2022-12-27T17:31:41.841Z,0.85
2022-12-27T17:33:00.793Z,1.08
2022-12-27T17:36:00.102Z,1.58
2022-12-27T17:39:04.471Z,3.10
2022-12-27T17:40:45.718Z,2.07
2022-12-27T17:42:28.823Z,1.32
2022-12-27T17:44:11.620Z,3.07
2022-12-27T17:46:56.879Z,1.23
2022-12-27T17:48:14.952Z,1.25
2022-12-27T17:49:28.255Z,1.90
2022-12-27T17:50:40.332Z,1.33
2022-12-27T17:52:08.186Z,1.30
2022-12-27T17:53:38.115Z,1.40
2022-12-27T17:55:06.118Z,1.20
2022-12-27T17:56:42.511Z,1.23
2022-12-27T17:57:54.799Z,1.18
2022-12-27T18:00:35.635Z,2.02
2022-12-27T18:01:48.247Z,2.78
2022-12-27T18:03:01.616Z,2.77
2022-12-27T18:04:20.006Z,3.08
2022-12-27T18:05:32.362Z,3.00
2022-12-27T22:17:54.073Z,5.73
2022-12-27T22:19:13.374Z,5.70
2022-12-27T22:20:23.000Z,4.20
2022-12-27T22:21:34.712Z,4.38
2022-12-27T22:22:44.109Z,5.08
2022-12-27T22:23:54.551Z,4.95
2022-12-27T22:25:05.091Z,4.88
2022-12-27T22:27:33.221Z,4.53
2022-12-27T22:28:42.676Z,4.07
2022-12-27T22:29:51.212Z,4.35
2022-12-27T22:32:23.977Z,3.95
2022-12-27T22:33:34.256Z,2.90
2022-12-27T22:36:10.598Z,6.03
2022-12-27T22:38:35.005Z,4.28
2022-12-27T22:39:44.706Z,6.45
2022-12-27T22:40:54.807Z,5.65
2022-12-27T22:42:04.413Z,4.13
2022-12-27T22:43:13.684Z,5.32
2022-12-27T22:44:22.311Z,5.50
2022-12-27T22:45:31.924Z,6.12
2022-12-27T22:47:24.960Z,7.30
2022-12-27T22:47:54.212Z,5.23
2022-12-27T22:49:04.216Z,6.77
2022-12-27T22:50:13.138Z,6.53
2022-12-27T22:51:24.990Z,4.42
2022-12-27T22:52:35.223Z,5.90
2022-12-27T22:53:45.037Z,5.30
2022-12-27T22:55:05.069Z,5.87
2022-12-27T22:56:05.335Z,5.33
2022-12-27T22:57:14.015Z,8.53
2022-12-27T22:58:23.129Z,5.78
2022-12-27T22:59:31.634Z,7.68
2022-12-27T23:00:40.489Z,3.27
2022-12-27T23:01:49.712Z,4.15
2022-12-27T23:02:58.522Z,6.50
2022-12-27T23:04:11.084Z,6.00
2022-12-27T23:05:20.960Z,6.85
2022-12-27T23:06:32.391Z,6.25
2022-12-27T23:08:04.286Z,4.70
2022-12-27T23:08:56.695Z,7.98
2022-12-27T23:11:28.186Z,8.45
2022-12-27T23:12:37.152Z,7.00
2022-12-27T23:13:46.922Z,9.02
2022-12-27T23:14:55.548Z,7.08
2022-12-27T23:16:05.630Z,5.18
2022-12-27T23:17:15.378Z,9.05
2022-12-27T23:18:26.405Z,4.85
2022-12-27T23:19:35.468Z,6.18
2022-12-27T23:21:20.709Z,9.82
2022-12-27T23:21:54.908Z,6.20
2022-12-27T23:23:03.744Z,6.23
2022-12-27T23:24:12.964Z,6.73
2022-12-27T23:25:21.461Z,5.38
2022-12-27T23:26:31.972Z,9.50
2022-12-27T23:27:40.693Z,8.05
2022-12-27T23:30:08.823Z,6.38
2022-12-27T23:31:20.657Z,6.15
2022-12-27T23:32:29.261Z,5.63
2022-12-27T23:33:39.607Z,5.72
2022-12-27T23:34:51.341Z,7.65
2022-12-27T23:36:02.971Z,4.80
2022-12-27T23:37:11.513Z,5.87
2022-12-27T23:38:21.245Z,6.23
2022-12-27T23:39:30.999Z,6.60
2022-12-27T23:40:39.515Z,9.25
2022-12-27T23:41:48.143Z,7.77
2022-12-27T23:43:18.481Z,5.03
2022-12-27T23:44:08.651Z,7.38
2022-12-27T23:46:33.978Z,6.70
2022-12-27T23:47:42.646Z,3.95
2022-12-27T23:48:52.779Z,5.75
2022-12-27T23:50:01.876Z,6.57
2022-12-27T23:51:12.606Z,5.35
2022-12-27T23:52:21.123Z,5.05
2022-12-27T23:53:30.777Z,6.53
2022-12-27T23:54:39.748Z,6.80
2022-12-27T23:56:01.317Z,4.95
2022-12-27T23:57:22.535Z,5.75
2022-12-27T23:58:20.486Z,8.08
2022-12-27T23:59:29.670Z,7.63
